Terminal Aerodrome Forecast
Issued by NWS

Home | Current Version | Previous Version | Graphics & Text | Print | Product List | Glossary On
Versions: 1 2 3 4 5 6 7 8 9 10 11 12 13 14 15 16 17 18 19 20 21 22 23 24 25 26 27 28 29 30 31 32 33 34 35 36 37 38 39 40 41 42 43 44
000
FTUS43 KLOT 131000 AAC
TAFORD
TAF AMD
KORD 131050Z 1311/1412 29007KT P6SM SCT020 BKN250
      TEMPO 1311/1314 BKN018 BKN250
     FM131800 28010G17KT P6SM SCT045 SCT250
     FM140000 30010KT P6SM BKN050
     FM140600 34006KT P6SM BKN050 BKN080
     FM140900 29005KT P6SM BKN060=

USA.gov is the U.S. government's official web portal to all federal, state and local government web resources and services.